createdAt,value
2022-12-31T00:01:40.228Z,100393.88
2022-12-31T00:04:17.812Z,100409.59
2022-12-31T00:06:44.556Z,100398.34
2022-12-31T00:09:17.126Z,100356.50
2022-12-31T00:11:48.490Z,100376.94
2022-12-31T00:14:21.455Z,100371.09
2022-12-31T00:16:58.972Z,100382.75
2022-12-31T00:19:45.721Z,100419.06
2022-12-31T00:25:05.050Z,100406.78
2022-12-31T00:27:38.894Z,100350.94
2022-12-31T00:30:14.754Z,100391.28
2022-12-31T00:32:49.019Z,100430.63
2022-12-31T00:35:21.976Z,100365.19
2022-12-31T00:37:54.906Z,100407.41
2022-12-31T00:40:43.607Z,100436.63
2022-12-31T00:43:30.241Z,100441.25
2022-12-31T00:46:06.608Z,100397.56
2022-12-31T00:48:40.860Z,100366.56
2022-12-31T00:51:17.909Z,100391.44
2022-12-31T00:53:52.919Z,100418.56
2022-12-31T00:56:32.091Z,100377.13
2022-12-31T00:59:06.842Z,100374.75
2022-12-31T01:01:44.509Z,100371.28
2022-12-31T01:04:33.538Z,100345.72
2022-12-31T01:07:03.341Z,100395.22
2022-12-31T01:10:01.335Z,100373.25
2022-12-31T01:12:37.726Z,100408.25
2022-12-31T01:15:17.525Z,100358.09
2022-12-31T01:17:57.161Z,100415.09
2022-12-31T01:20:31.476Z,100382.56
2022-12-31T01:23:03.812Z,100370.50
2022-12-31T01:25:57.452Z,100433.56
2022-12-31T01:28:38.156Z,100373.97
2022-12-31T01:31:12.218Z,100360.63
2022-12-31T01:33:45.191Z,100392.84
2022-12-31T01:36:23.596Z,100425.63
2022-12-31T01:38:53.034Z,100409.25
2022-12-31T01:41:24.830Z,100403.09
2022-12-31T01:43:52.027Z,100422.69
2022-12-31T01:46:39.512Z,100386.00
2022-12-31T01:49:29.261Z,100427.00
2022-12-31T01:52:17.789Z,100412.56
2022-12-31T01:55:15.168Z,100400.50
2022-12-31T01:57:54.060Z,100425.00
2022-12-31T02:00:49.699Z,100428.13
2022-12-31T02:03:28.369Z,100425.81
2022-12-31T02:06:14.317Z,100423.81
2022-12-31T02:08:44.255Z,100381.59
2022-12-31T02:11:57.103Z,100353.09
2022-12-31T02:14:44.691Z,100389.63
2022-12-31T02:17:14.175Z,100415.28
2022-12-31T02:20:22.279Z,100419.75
2022-12-31T02:23:09.196Z,100394.50
2022-12-31T02:25:52.914Z,100417.78
2022-12-31T02:28:52.855Z,100343.56
2022-12-31T02:31:41.554Z,100375.47
2022-12-31T02:34:26.655Z,100427.56
2022-12-31T02:36:57.939Z,100418.78
2022-12-31T02:39:24.729Z,100424.06
2022-12-31T02:41:52.253Z,100430.22
2022-12-31T02:44:26.451Z,100421.41
2022-12-31T02:47:10.476Z,100440.81
2022-12-31T02:50:13.967Z,100432.16
2022-12-31T02:53:23.180Z,100440.94
2022-12-31T02:55:58.316Z,100436.50
2022-12-31T02:59:01.188Z,100421.56
2022-12-31T03:01:53.953Z,100430.34
2022-12-31T03:04:34.871Z,100423.38
2022-12-31T03:07:19.085Z,100432.84
2022-12-31T03:09:45.669Z,100434.66
2022-12-31T03:12:32.358Z,100427.69
2022-12-31T03:14:59.563Z,100447.94
2022-12-31T03:17:27.395Z,100439.84
2022-12-31T03:20:12.631Z,100452.09
2022-12-31T03:22:42.418Z,100449.44
2022-12-31T03:25:33.815Z,100445.13
2022-12-31T03:28:03.870Z,100459.22
2022-12-31T03:30:32.037Z,100450.56
2022-12-31T03:32:59.954Z,100455.72
2022-12-31T03:35:30.041Z,100453.91
2022-12-31T03:37:56.848Z,100453.09
2022-12-31T03:40:26.282Z,100452.25
2022-12-31T03:42:53.630Z,100456.56
2022-12-31T03:45:20.621Z,100452.09
2022-12-31T03:47:48.332Z,100441.66
2022-12-31T03:50:18.150Z,100454.63
2022-12-31T03:52:45.371Z,100453.09
2022-12-31T03:55:12.042Z,100444.28
2022-12-31T03:57:39.121Z,100451.28
2022-12-31T04:00:07.904Z,100445.97
2022-12-31T04:02:34.545Z,100435.38
2022-12-31T04:05:01.787Z,100417.78
2022-12-31T04:07:28.316Z,100417.78
2022-12-31T04:09:55.393Z,100408.03
2022-12-31T04:12:21.968Z,100393.94
2022-12-31T04:14:48.992Z,100397.41
2022-12-31T04:17:16.037Z,100416.81
2022-12-31T04:19:43.110Z,100422.94
2022-12-31T04:22:09.748Z,100415.13
2022-12-31T04:24:36.776Z,100422.94
2022-12-31T04:27:07.446Z,100423.09
2022-12-31T04:29:34.884Z,100419.47
2022-12-31T04:32:01.699Z,100409.84
2022-12-31T04:34:28.381Z,100423.94
2022-12-31T04:36:55.483Z,100426.72
2022-12-31T04:39:22.161Z,100431.03
2022-12-31T04:41:48.811Z,100423.94
2022-12-31T04:44:15.633Z,100429.22
2022-12-31T04:46:42.233Z,100443.31
2022-12-31T04:49:09.423Z,100448.75
2022-12-31T04:51:36.541Z,100445.28
2022-12-31T04:54:03.843Z,100435.38
2022-12-31T04:56:30.832Z,100440.81
2022-12-31T04:58:57.382Z,100446.81
2022-12-31T05:01:24.720Z,100436.50
2022-12-31T05:03:51.406Z,100443.31
2022-12-31T05:06:21.708Z,100430.22
2022-12-31T05:08:49.022Z,100431.03
2022-12-31T05:11:16.875Z,100427.56
2022-12-31T05:13:44.355Z,100431.19
2022-12-31T05:16:11.169Z,100433.69
2022-12-31T05:18:38.138Z,100444.44
2022-12-31T05:21:05.389Z,100441.78
2022-12-31T05:23:32.481Z,100445.28
2022-12-31T05:25:59.729Z,100439.97
2022-12-31T05:28:27.082Z,100444.59
2022-12-31T05:30:53.773Z,100448.75
2022-12-31T05:33:20.694Z,100455.88
2022-12-31T05:35:47.368Z,100457.53
2022-12-31T05:38:14.457Z,100454.91
2022-12-31T05:40:40.981Z,100450.44
2022-12-31T05:43:07.711Z,100455.72
2022-12-31T05:45:34.741Z,100451.28
2022-12-31T05:48:01.367Z,100453.78
2022-12-31T05:50:28.006Z,100444.00
2022-12-31T05:52:54.585Z,100439.69
2022-12-31T05:55:21.827Z,100449.31
2022-12-31T05:57:48.401Z,100452.63
2022-12-31T06:00:15.468Z,100442.84
2022-12-31T06:02:42.626Z,100454.28
2022-12-31T06:05:10.282Z,100444.53
2022-12-31T06:07:36.877Z,100447.16
2022-12-31T06:10:04.509Z,100449.00
2022-12-31T06:12:31.667Z,100444.38
2022-12-31T06:14:58.273Z,100429.47
2022-12-31T06:17:25.479Z,100432.94
2022-12-31T06:19:52.165Z,100430.16
2022-12-31T06:22:19.209Z,100438.94
2022-12-31T06:24:46.293Z,100442.41
2022-12-31T06:27:12.916Z,100443.53
2022-12-31T06:29:39.616Z,100445.91
2022-12-31T06:32:06.910Z,100449.53
2022-12-31T06:34:33.950Z,100454.84
2022-12-31T06:37:00.997Z,100455.66
2022-12-31T06:39:28.425Z,100454.84
2022-12-31T06:41:55.522Z,100448.69
2022-12-31T06:44:22.682Z,100447.72
2022-12-31T06:46:50.946Z,100455.66
2022-12-31T06:49:18.392Z,100460.00
2022-12-31T06:51:46.238Z,100453.84
2022-12-31T06:54:13.606Z,100455.66
2022-12-31T06:56:40.946Z,100452.88
2022-12-31T06:59:17.862Z,100451.22
2022-12-31T07:01:44.987Z,100452.88
2022-12-31T07:04:42.197Z,100454.69
2022-12-31T07:07:49.185Z,100450.22
2022-12-31T07:10:53.147Z,100452.03
2022-12-31T07:13:53.145Z,100449.38
2022-12-31T07:16:32.299Z,100446.75
2022-12-31T07:19:49.945Z,100434.47
2022-12-31T07:22:20.613Z,100438.78
2022-12-31T07:24:48.468Z,100439.78
2022-12-31T07:27:28.466Z,100438.78
2022-12-31T07:30:00.898Z,100446.59
2022-12-31T07:32:50.942Z,100436.00
2022-12-31T07:35:34.730Z,100443.41
2022-12-31T07:38:05.293Z,100443.94
2022-12-31T07:41:09.335Z,100457.19
2022-12-31T07:43:44.601Z,100461.81
2022-12-31T07:46:41.437Z,100465.00
2022-12-31T07:49:11.837Z,100459.84
2022-12-31T07:51:39.124Z,100459.72
2022-12-31T07:54:11.849Z,100468.53
2022-12-31T07:56:41.353Z,100455.38
2022-12-31T07:59:26.404Z,100472.69
2022-12-31T08:02:15.437Z,100473.69
2022-12-31T08:05:23.717Z,100479.81
2022-12-31T08:08:22.389Z,100478.84
2022-12-31T08:10:59.651Z,100478.16
2022-12-31T08:13:27.390Z,100486.63
2022-12-31T08:15:54.496Z,100485.63
2022-12-31T08:18:21.831Z,100484.66
2022-12-31T08:21:19.039Z,100489.00
2022-12-31T08:23:48.543Z,100490.66
2022-12-31T08:26:53.442Z,100500.28
2022-12-31T08:29:36.203Z,100501.25
2022-12-31T08:32:35.547Z,100506.41
2022-12-31T08:35:23.790Z,100502.78
2022-12-31T08:38:15.515Z,100513.41
2022-12-31T08:40:50.932Z,100504.47
2022-12-31T08:43:29.814Z,100508.94
2022-12-31T08:45:58.358Z,100500.84
2022-12-31T08:48:41.416Z,100509.47
2022-12-31T08:51:23.588Z,100508.63
2022-12-31T08:53:51.119Z,100520.91
2022-12-31T08:56:32.360Z,100499.72
2022-12-31T08:59:17.842Z,100512.66
2022-12-31T09:01:59.607Z,100514.31
2022-12-31T09:05:10.824Z,100516.13
2022-12-31T09:07:40.928Z,100531.91
2022-12-31T09:10:17.291Z,100542.38
2022-12-31T09:12:59.219Z,100542.22
2022-12-31T09:15:51.219Z,100535.94
2022-12-31T09:18:18.106Z,100543.75
2022-12-31T09:20:45.197Z,100555.06
2022-12-31T09:23:13.248Z,100565.47
2022-12-31T09:25:55.796Z,100567.16
2022-12-31T09:28:46.385Z,100557.25
2022-12-31T09:31:23.108Z,100561.72
2022-12-31T09:33:56.037Z,100568.53
2022-12-31T09:36:28.060Z,100572.88
2022-12-31T09:39:20.304Z,100573.56
2022-12-31T09:41:50.075Z,100580.69
2022-12-31T09:44:41.954Z,100583.19
2022-12-31T09:47:11.134Z,100572.44
2022-12-31T09:50:11.146Z,100598.81
2022-12-31T09:53:18.984Z,100592.50
2022-12-31T09:55:55.606Z,100588.34
2022-12-31T09:58:43.622Z,100599.47
2022-12-31T10:01:37.700Z,100605.63
2022-12-31T10:04:43.540Z,100612.59
2022-12-31T10:07:38.428Z,100595.16
2022-12-31T10:10:20.439Z,100602.81
2022-12-31T10:13:08.391Z,100607.00
2022-12-31T10:16:02.096Z,100614.97
2022-12-31T10:18:37.356Z,100619.44
2022-12-31T10:21:38.974Z,100607.00
2022-12-31T10:24:19.795Z,100623.75
2022-12-31T10:27:04.643Z,100625.44
2022-12-31T10:29:49.112Z,100620.97
2022-12-31T10:32:29.423Z,100614.69
2022-12-31T10:35:21.002Z,100619.84
2022-12-31T10:37:59.393Z,100633.09
2022-12-31T10:40:34.671Z,100626.00
2022-12-31T10:43:54.271Z,100615.66
2022-12-31T10:46:35.819Z,100622.34
2022-12-31T10:49:39.874Z,100617.88
2022-12-31T10:52:09.377Z,100609.91
2022-12-31T10:55:12.844Z,100618.53
2022-12-31T10:57:58.704Z,100616.72
2022-12-31T11:00:38.417Z,100620.22
2022-12-31T11:03:38.903Z,100625.38
2022-12-31T11:06:34.605Z,100624.09
2022-12-31T11:09:27.472Z,100624.94
2022-12-31T11:12:09.749Z,100636.53
2022-12-31T11:15:13.687Z,100647.00
2022-12-31T11:17:53.611Z,100642.53
2022-12-31T11:20:32.521Z,100630.94
2022-12-31T11:23:31.163Z,100648.53
2022-12-31T11:25:58.193Z,100648.41
2022-12-31T11:28:51.566Z,100651.88
2022-12-31T11:31:46.406Z,100650.88
2022-12-31T11:34:52.058Z,100663.03
2022-12-31T11:37:48.903Z,100647.09
2022-12-31T11:40:18.375Z,100644.28
2022-12-31T11:42:55.796Z,100644.16
2022-12-31T11:45:43.222Z,100630.03
2022-12-31T11:48:30.138Z,100636.03
2022-12-31T11:51:50.509Z,100629.06
2022-12-31T11:54:45.464Z,100630.44
2022-12-31T11:57:25.448Z,100631.28
2022-12-31T11:59:58.956Z,100638.25
2022-12-31T12:02:26.172Z,100638.25
2022-12-31T12:04:55.279Z,100629.28
2022-12-31T12:07:22.000Z,100622.16
2022-12-31T12:09:49.166Z,100628.31
2022-12-31T12:12:16.496Z,100625.50
2022-12-31T12:14:49.315Z,100627.19
2022-12-31T12:17:32.125Z,100613.22
2022-12-31T12:20:17.036Z,100619.91
2022-12-31T12:22:56.337Z,100603.13
2022-12-31T12:25:26.257Z,100608.44
2022-12-31T12:27:53.523Z,100603.97
2022-12-31T12:30:25.746Z,100611.78
2022-12-31T12:33:01.381Z,100601.03
2022-12-31T12:35:31.003Z,100598.38
2022-12-31T12:38:07.263Z,100589.56
2022-12-31T12:40:35.664Z,100583.41
2022-12-31T12:43:03.035Z,100586.91
2022-12-31T12:45:44.239Z,100569.31
2022-12-31T12:48:30.137Z,100568.03
2022-12-31T12:50:56.854Z,100566.22
2022-12-31T12:53:47.977Z,100565.03
2022-12-31T12:56:27.532Z,100566.88
2022-12-31T12:59:21.935Z,100585.31
2022-12-31T13:02:22.777Z,100621.66
2022-12-31T13:04:58.282Z,100648.88
2022-12-31T13:08:02.166Z,100633.78
2022-12-31T13:10:47.104Z,100629.31
2022-12-31T13:13:31.602Z,100637.28
2022-12-31T13:16:26.009Z,100625.53
2022-12-31T13:19:01.665Z,100635.47
2022-12-31T13:21:37.361Z,100619.38
2022-12-31T13:24:21.528Z,100622.03
2022-12-31T13:26:58.628Z,100626.06
2022-12-31T13:29:31.161Z,100638.66
2022-12-31T13:32:01.243Z,100629.47
2022-12-31T13:34:32.019Z,100638.88
2022-12-31T13:37:05.218Z,100624.38
2022-12-31T13:39:38.534Z,100624.66
2022-12-31T13:42:22.169Z,100629.28
2022-12-31T13:44:59.553Z,100639.75
2022-12-31T13:47:38.068Z,100627.47
2022-12-31T13:50:28.843Z,100635.44
2022-12-31T13:52:58.671Z,100629.81
2022-12-31T13:55:32.565Z,100628.84
2022-12-31T13:58:14.119Z,100632.19
2022-12-31T14:00:59.359Z,100640.00
2022-12-31T14:03:46.128Z,100632.88
2022-12-31T14:06:41.322Z,100635.25
2022-12-31T14:09:13.399Z,100636.22
2022-12-31T14:12:06.171Z,100649.19
2022-12-31T14:14:51.077Z,100634.91
2022-12-31T14:17:32.943Z,100638.25
2022-12-31T14:20:23.588Z,100634.63
2022-12-31T14:23:24.383Z,100644.25
2022-12-31T14:26:06.167Z,100642.44
2022-12-31T14:28:46.708Z,100650.28
2022-12-31T14:31:30.284Z,100662.56
2022-12-31T14:34:08.763Z,100669.69
2022-12-31T14:36:50.389Z,100674.75
2022-12-31T14:39:55.520Z,100686.06
2022-12-31T14:42:40.910Z,100680.75
2022-12-31T14:45:46.305Z,100685.03
2022-12-31T14:48:40.887Z,100680.75
2022-12-31T14:51:08.028Z,100694.69
2022-12-31T14:53:34.845Z,100684.91
2022-12-31T14:56:26.354Z,100691.88
2022-12-31T14:59:02.483Z,100689.38
2022-12-31T15:01:29.366Z,100697.88
2022-12-31T15:03:58.117Z,100694.25
2022-12-31T15:06:24.761Z,100697.75
2022-12-31T15:09:19.701Z,100710.88
2022-12-31T15:12:04.946Z,100707.38
2022-12-31T15:14:46.667Z,100718.84
2022-12-31T15:17:41.275Z,100710.88
2022-12-31T15:20:26.340Z,100702.91
2022-12-31T15:22:54.686Z,100677.19
2022-12-31T15:25:38.353Z,100686.00
2022-12-31T15:28:37.799Z,100690.47
2022-12-31T15:31:18.117Z,100685.84
2022-12-31T15:34:00.884Z,100676.19
2022-12-31T15:36:39.392Z,100677.88
2022-12-31T15:39:11.653Z,100673.41
2022-12-31T15:42:02.950Z,100676.19
2022-12-31T15:44:48.445Z,100673.41
2022-12-31T15:47:24.870Z,100662.91
2022-12-31T15:49:53.927Z,100670.75
2022-12-31T15:52:41.704Z,100665.56
2022-12-31T15:55:16.346Z,100669.75
2022-12-31T15:57:43.453Z,100675.06
2022-12-31T16:00:22.439Z,100674.06
2022-12-31T16:02:53.710Z,100675.72
2022-12-31T16:05:26.228Z,100676.56
2022-12-31T16:07:55.543Z,100682.72
2022-12-31T16:10:27.136Z,100683.53
2022-12-31T16:12:56.709Z,100678.22
2022-12-31T16:15:27.111Z,100659.78
2022-12-31T16:18:04.614Z,100664.13
2022-12-31T16:20:33.603Z,100659.63
2022-12-31T16:23:03.432Z,100649.84
2022-12-31T16:25:33.061Z,100640.06
2022-12-31T16:28:02.042Z,100633.75
2022-12-31T16:30:32.100Z,100653.19
2022-12-31T16:33:11.683Z,100650.53
2022-12-31T16:35:38.250Z,100647.88
2022-12-31T16:38:08.407Z,100630.13
2022-12-31T16:40:35.284Z,100635.44
2022-12-31T16:43:01.932Z,100638.22
2022-12-31T16:45:35.745Z,100622.16
2022-12-31T16:48:18.988Z,100630.13
2022-12-31T16:50:52.715Z,100641.72
2022-12-31T16:53:26.154Z,100627.47
2022-12-31T16:56:19.645Z,100633.59
2022-12-31T16:58:46.349Z,100620.47
2022-12-31T17:01:25.336Z,100620.31
2022-12-31T17:04:00.042Z,100615.00
2022-12-31T17:06:28.448Z,100621.16
2022-12-31T17:09:00.881Z,100624.81
2022-12-31T17:11:33.140Z,100639.06
2022-12-31T17:14:06.158Z,100646.06
2022-12-31T17:16:36.049Z,100616.84
2022-12-31T17:19:02.996Z,100601.72
2022-12-31T17:21:31.787Z,100605.22
2022-12-31T17:24:04.361Z,100610.53
2022-12-31T17:26:34.789Z,100620.31
2022-12-31T17:29:03.858Z,100618.50
2022-12-31T17:31:42.401Z,100611.53
2022-12-31T17:34:15.435Z,100620.19
2022-12-31T17:37:14.317Z,100606.91
2022-12-31T17:39:48.819Z,100609.56
2022-12-31T17:42:27.797Z,100618.34
2022-12-31T17:44:58.861Z,100608.72
2022-12-31T17:47:34.000Z,100606.91
2022-12-31T17:50:23.137Z,100605.06
2022-12-31T17:52:49.833Z,100623.66
2022-12-31T17:55:16.758Z,100627.16
2022-12-31T17:57:56.164Z,100632.63
2022-12-31T18:00:27.153Z,100633.31
2022-12-31T18:02:53.933Z,100634.16
2022-12-31T18:05:23.208Z,100619.88
2022-12-31T18:07:50.390Z,100633.16
2022-12-31T18:10:19.226Z,100627.69
2022-12-31T18:12:47.294Z,100631.19
2022-12-31T18:15:22.678Z,100622.22
2022-12-31T18:17:49.754Z,100620.56
2022-12-31T18:20:17.597Z,100634.66
2022-12-31T18:22:45.401Z,100629.34
2022-12-31T18:25:19.399Z,100629.19
2022-12-31T18:27:46.289Z,100639.16
2022-12-31T18:30:13.415Z,100622.38
2022-12-31T18:32:41.629Z,100633.84
2022-12-31T18:35:57.604Z,100632.69
2022-12-31T18:38:12.585Z,100623.88
2022-12-31T18:40:42.765Z,100626.53
2022-12-31T18:43:16.067Z,100627.38
2022-12-31T18:45:43.387Z,100638.00
2022-12-31T18:48:10.101Z,100657.28
2022-12-31T18:50:36.759Z,100642.19
2022-12-31T18:53:03.689Z,100643.84
2022-12-31T18:55:51.429Z,100639.53
2022-12-31T18:58:18.776Z,100644.00
2022-12-31T19:00:47.040Z,100639.53
2022-12-31T19:03:22.479Z,100641.34
2022-12-31T19:05:50.921Z,100633.22
2022-12-31T19:08:18.859Z,100647.34
2022-12-31T19:10:46.428Z,100630.41
2022-12-31T19:13:14.320Z,100627.75
2022-12-31T19:15:51.872Z,100635.72
2022-12-31T19:18:19.559Z,100647.19
2022-12-31T19:20:46.482Z,100660.47
2022-12-31T19:23:18.191Z,100645.53
2022-12-31T19:25:46.089Z,100647.19
2022-12-31T19:28:17.457Z,100641.72
2022-12-31T19:30:44.755Z,100633.06
2022-12-31T19:33:12.649Z,100641.72
2022-12-31T19:35:39.977Z,100637.56
2022-12-31T19:38:21.824Z,100635.59
2022-12-31T19:40:50.094Z,100629.44
2022-12-31T19:43:18.548Z,100637.41
2022-12-31T19:45:45.895Z,100644.38
2022-12-31T19:48:14.682Z,100647.19
2022-12-31T19:50:44.534Z,100645.38
2022-12-31T19:53:22.882Z,100651.53
2022-12-31T19:55:50.633Z,100659.66
2022-12-31T19:58:25.416Z,100664.66
2022-12-31T20:00:57.085Z,100665.66
2022-12-31T20:03:28.221Z,100658.50
2022-12-31T20:06:07.151Z,100669.97
2022-12-31T20:08:34.437Z,100675.44
2022-12-31T20:11:11.870Z,100672.63
2022-12-31T20:13:39.536Z,100678.78
2022-12-31T20:16:11.691Z,100678.94
2022-12-31T20:18:40.200Z,100674.31
2022-12-31T20:21:12.211Z,100684.09
2022-12-31T20:23:38.767Z,100682.28
2022-12-31T20:26:05.497Z,100700.88
2022-12-31T20:28:32.589Z,100695.56
2022-12-31T20:31:04.049Z,100689.56
2022-12-31T20:33:31.003Z,100696.56
2022-12-31T20:36:05.354Z,100690.09
2022-12-31T20:38:32.432Z,100685.78
2022-12-31T20:41:04.311Z,100685.09
2022-12-31T20:43:32.342Z,100691.25
2022-12-31T20:45:59.013Z,100691.94
2022-12-31T20:48:26.328Z,100675.28
2022-12-31T20:50:57.291Z,100685.78
2022-12-31T20:53:24.289Z,100693.56
2022-12-31T20:55:50.918Z,100694.59
2022-12-31T20:58:17.619Z,100696.22
2022-12-31T21:00:49.105Z,100712.16
2022-12-31T21:03:53.531Z,100699.06
2022-12-31T21:06:05.382Z,100690.25
2022-12-31T21:08:35.146Z,100694.41
2022-12-31T21:11:02.625Z,100711.19
2022-12-31T21:13:29.193Z,100707.69
2022-12-31T21:15:55.992Z,100709.50
2022-12-31T21:18:23.305Z,100710.34
2022-12-31T21:20:51.925Z,100720.16
2022-12-31T21:23:20.765Z,100718.31
2022-12-31T21:25:50.059Z,100711.19
2022-12-31T21:28:16.744Z,100708.53
2022-12-31T21:30:43.386Z,100722.66
2022-12-31T21:33:10.443Z,100728.13
2022-12-31T21:35:51.863Z,100729.78
2022-12-31T21:38:20.829Z,100742.25
2022-12-31T21:40:47.664Z,100744.91
2022-12-31T21:43:15.194Z,100757.19
2022-12-31T21:45:42.415Z,100742.25
2022-12-31T21:48:23.321Z,100750.22
2022-12-31T21:50:53.031Z,100751.06
2022-12-31T21:53:26.163Z,100742.25
2022-12-31T21:56:09.814Z,100749.38
2022-12-31T21:58:38.105Z,100736.09
2022-12-31T22:01:24.105Z,100749.38
2022-12-31T22:03:51.007Z,100746.72
2022-12-31T22:06:24.623Z,100742.56
2022-12-31T22:08:54.269Z,100748.56
2022-12-31T22:11:23.252Z,100754.69
2022-12-31T22:13:50.828Z,100755.72
2022-12-31T22:16:20.091Z,100752.03
2022-12-31T22:18:47.115Z,100752.03
2022-12-31T22:21:18.971Z,100757.53
2022-12-31T22:23:49.255Z,100753.06
2022-12-31T22:26:17.678Z,100748.41
2022-12-31T22:28:45.978Z,100756.53
2022-12-31T22:31:19.630Z,100756.38
2022-12-31T22:33:47.731Z,100751.06
2022-12-31T22:36:17.432Z,100752.88
2022-12-31T22:38:45.353Z,100762.66
2022-12-31T22:41:14.739Z,100758.19
2022-12-31T22:43:43.795Z,100761.69
2022-12-31T22:46:17.039Z,100764.34
2022-12-31T22:48:44.235Z,100767.84
2022-12-31T22:51:12.052Z,100762.53
2022-12-31T22:53:39.659Z,100760.69
2022-12-31T22:56:06.952Z,100778.47
2022-12-31T22:58:34.349Z,100759.88
2022-12-31T23:01:04.587Z,100766.16
2022-12-31T23:03:31.303Z,100764.34
2022-12-31T23:05:57.911Z,100769.38
2022-12-31T23:08:24.506Z,100787.69
2022-12-31T23:11:08.869Z,100783.88
2022-12-31T23:14:00.197Z,100783.59
2022-12-31T23:16:48.068Z,100786.91
2022-12-31T23:19:34.305Z,100790.94
2022-12-31T23:22:19.520Z,100805.91
2022-12-31T23:24:46.120Z,100802.81
2022-12-31T23:27:12.700Z,100814.13
2022-12-31T23:29:46.173Z,100815.78
2022-12-31T23:32:14.148Z,100814.13
2022-12-31T23:34:41.148Z,100819.97
2022-12-31T23:37:08.274Z,100820.94
2022-12-31T23:39:35.470Z,100828.78
2022-12-31T23:42:02.030Z,100842.91
2022-12-31T23:44:28.731Z,100804.84
2022-12-31T23:46:55.832Z,100819.97
2022-12-31T23:49:23.106Z,100828.78
2022-12-31T23:51:50.196Z,100825.81
2022-12-31T23:54:17.829Z,100833.50
2022-12-31T23:56:45.175Z,100821.88
2022-12-31T23:59:13.208Z,100838.69
